Time;durP1;ratioP1;P1;durP2;ratioP2;P2;SDS_P1;SDS_P2;PMS_P1;PMS_P2;Temp;Humidity;BMP_temperature;BMP_pressure;BME280_temperature;BME280_humidity;BME280_pressure;Samples;Min_cycle;Max_cycle;Signal;HPM_P1;HPM_P2
2020/12/18 00:02:03;;;;;;;;;65.80;50.20;;;;;8.43;45.56;99406.91;6161401;28;99624;-88
2020/12/18 00:05:05;;;;;;;;;64.00;50.00;;;;;9.92;46.01;99654.81;6162380;28;96812;-88
2020/12/18 00:08:06;;;;;;;;;65.40;50.20;;;;;9.58;45.77;99597.19;6161805;28;97645;-89
2020/12/18 00:11:09;;;;;;;;;68.00;52.00;;;;;8.56;46.00;99450.84;6194339;28;97024;-89
2020/12/18 00:14:11;;;;;;;;;64.00;50.80;;;;;9.42;46.12;99573.31;6177369;28;98119;-88
2020/12/18 00:17:13;;;;;;;;;64.40;50.40;;;;;8.84;46.35;99504.63;6178485;28;97271;-88
2020/12/18 00:20:14;;;;;;;;;64.80;50.20;;;;;9.83;46.19;99639.81;6177829;28;97688;-88
2020/12/18 00:23:16;;;;;;;;;63.60;48.60;;;;;9.50;46.04;99637.75;6177144;28;98781;-88
2020/12/18 00:26:18;;;;;;;;;64.00;48.80;;;;;8.00;46.08;99368.53;6177325;28;98614;-88
2020/12/18 00:29:20;;;;;;;;;68.40;51.00;;;;;10.00;46.17;99657.31;6177683;28;98717;-88
2020/12/18 00:32:22;;;;;;;;;62.00;48.40;;;;;9.47;46.40;99588.88;6160713;28;96839;-89
2020/12/18 00:35:24;;;;;;;;;59.00;48.40;;;;;9.46;46.60;99601.50;6178281;28;96976;-88
2020/12/18 00:38:26;;;;;;;;;63.00;49.00;;;;;9.39;46.40;99586.31;6176398;28;96800;-87
2020/12/18 00:41:27;;;;;;;;;63.00;48.40;;;;;7.35;46.76;99256.88;6162389;28;97242;-88
2020/12/18 00:44:28;;;;;;;;;64.60;48.00;;;;;9.69;46.41;99641.59;6195554;28;96799;-89
2020/12/18 00:47:30;;;;;;;;;64.60;49.80;;;;;9.47;46.69;99603.16;6198121;28;97554;-88
2020/12/18 00:50:33;;;;;;;;;61.25;48.00;;;;;9.59;46.64;99641.09;6176021;28;99572;-89
2020/12/18 00:53:36;;;;;;;;;62.00;47.60;;;;;9.48;46.70;99620.94;6197615;28;96926;-86
2020/12/18 00:56:43;;;;;;;;;63.00;47.60;;;;;9.85;46.56;99662.84;6181337;28;97646;-86
2020/12/18 00:59:44;;;;;;;;;60.80;48.00;;;;;9.43;46.58;99583.03;6181665;28;97517;-86
2020/12/18 01:02:52;;;;;;;;;60.40;46.40;;;;;9.80;46.74;99686.00;6165520;28;97590;-90
2020/12/18 01:05:53;;;;;;;;;60.67;46.00;;;;;9.74;46.72;99641.84;6180913;28;100084;-89
2020/12/18 01:08:55;;;;;;;;;57.00;46.00;;;;;9.92;47.16;99673.66;6164223;28;98539;-90
2020/12/18 01:12:01;;;;;;;;;58.40;45.00;;;;;10.19;46.98;99721.28;6181228;28;97038;-90
2020/12/18 01:15:03;;;;;;;;;59.40;45.20;;;;;8.52;47.12;99481.81;6180143;28;99547;-91
2020/12/18 01:18:06;;;;;;;;;55.00;44.00;;;;;8.55;46.89;99467.19;6196838;28;97121;-90
2020/12/18 01:21:08;;;;;;;;;60.00;46.00;;;;;9.70;46.95;99629.81;6181578;28;96804;-90
2020/12/18 01:24:12;;;;;;;;;57.00;46.00;;;;;8.67;46.75;99441.41;6181918;28;96932;-89
2020/12/18 01:27:18;;;;;;;;;53.60;43.00;;;;;9.75;46.93;99648.06;6181305;28;98946;-90
2020/12/18 01:30:20;;;;;;;;;56.40;43.00;;;;;9.85;46.93;99621.59;6164856;28;96365;-90
2020/12/18 01:33:22;;;;;;;;;54.40;43.00;;;;;10.20;46.69;99668.22;6181060;28;96923;-90
2020/12/18 01:36:24;;;;;;;;;54.00;43.00;;;;;10.28;46.76;99666.19;6198032;28;97224;-88
2020/12/18 01:39:30;;;;;;;;;51.40;42.80;;;;;8.92;46.89;99439.09;6181312;28;96626;-90
2020/12/18 01:42:33;;;;;;;;;51.60;41.00;;;;;9.94;46.41;99612.31;6198502;28;96882;-88
2020/12/18 01:45:35;;;;;;;;;52.75;42.00;;;;;10.54;46.20;99727.47;6180755;28;96655;-90
2020/12/18 01:48:43;;;;;;;;;48.00;39.60;;;;;10.26;46.46;99679.00;6180974;28;97966;-88
2020/12/18 01:51:47;;;;;;;;;51.60;40.80;;;;;10.59;46.47;99708.00;6180855;28;96526;-89
2020/12/18 01:55:01;;;;;;;;;55.75;44.00;;;;;10.52;46.67;99709.81;6166124;28;99445;-90
2020/12/18 01:58:05;;;;;;;;;53.00;41.80;;;;;9.92;46.46;99622.47;6182178;28;98314;-88
2020/12/18 02:01:14;;;;;;;;;54.00;42.60;;;;;9.50;46.24;99524.69;6197066;28;97996;-89
2020/12/18 02:04:31;;;;;;;;;54.00;42.00;;;;;9.98;46.37;99638.66;6181066;28;97683;-88
2020/12/18 02:07:36;;;;;;;;;51.75;42.00;;;;;9.95;46.30;99627.44;6165501;28;96696;-88
2020/12/18 02:11:03;;;;;;;;;51.00;40.20;;;;;9.93;46.46;99633.03;6185002;28;98668;-88
2020/12/18 02:14:12;;;;;;;;;51.00;41.00;;;;;10.51;46.62;99705.47;6156001;28;99937;-89
2020/12/18 02:17:16;;;;;;;;;49.50;39.50;;;;;10.51;46.62;99703.59;6156676;28;99286;-88
2020/12/18 02:20:20;;;;;;;;;50.00;39.00;;;;;10.50;46.64;99720.00;6140297;28;97576;-88
2020/12/18 02:23:28;;;;;;;;;51.40;41.40;;;;;9.98;46.48;99627.88;6157079;28;97813;-89
2020/12/18 02:26:30;;;;;;;;;53.40;42.00;;;;;10.55;46.45;99693.25;6162024;28;96614;-88
2020/12/18 02:29:31;;;;;;;;;50.00;40.00;;;;;9.95;46.36;99622.91;6180838;28;98144;-88
2020/12/18 02:32:42;;;;;;;;;49.00;41.00;;;;;10.48;46.39;99711.25;6197078;28;96892;-88
2020/12/18 02:35:45;;;;;;;;;47.40;39.00;;;;;10.61;46.41;99724.78;6197138;28;98100;-88
2020/12/18 02:38:47;;;;;;;;;49.00;39.80;;;;;10.29;45.69;99669.72;6197200;28;97934;-88
2020/12/18 02:41:49;;;;;;;;;47.00;38.00;;;;;10.43;45.97;99676.81;6180922;28;96482;-88
2020/12/18 02:44:55;;;;;;;;;45.00;37.00;;;;;10.53;45.87;99696.16;6198282;28;97579;-88
2020/12/18 02:48:26;;;;;;;;;48.80;39.00;;;;;10.76;45.86;99710.13;6172907;28;98208;-88
2020/12/18 02:51:42;;;;;;;;;51.40;39.00;;;;;10.75;45.87;99704.94;6162030;28;96998;-88
2020/12/18 02:55:16;;;;;;;;;47.00;39.00;;;;;10.08;45.60;99613.19;6183275;28;97144;-88
2020/12/18 02:58:36;;;;;;;;;49.00;40.00;;;;;10.43;45.74;99684.91;6155897;28;97742;-88
2020/12/18 03:01:37;;;;;;;;;48.60;38.00;;;;;10.28;45.45;99671.56;6156637;28;99246;-89
2020/12/18 03:04:40;;;;;;;;;45.00;36.00;;;;;10.13;45.55;99618.81;6178351;28;96714;-89
2020/12/18 03:07:54;;;;;;;;;48.60;39.00;;;;;10.41;45.69;99674.31;6180992;28;97046;-89
2020/12/18 03:10:56;;;;;;;;;47.00;37.25;;;;;10.47;45.91;99644.88;6183499;28;96748;-88
2020/12/18 03:13:58;;;;;;;;;48.00;39.00;;;;;10.47;45.91;99670.00;6183514;28;97158;-89
2020/12/18 03:17:05;;;;;;;;;50.00;39.00;;;;;10.47;46.04;99652.97;6167319;28;96489;-89
2020/12/18 03:20:39;;;;;;;;;50.00;40.00;;;;;10.44;46.12;99656.94;6180392;27;96959;-87
2020/12/18 03:24:03;;;;;;;;;47.50;38.25;;;;;10.53;45.97;99693.44;6183643;28;98580;-88
2020/12/18 03:27:19;;;;;;;;;47.00;38.00;;;;;10.48;46.03;99666.25;6178017;28;96790;-88
2020/12/18 03:30:30;;;;;;;;;52.00;41.00;;;;;10.12;46.10;99625.22;6202859;28;97210;-89
2020/12/18 03:33:35;;;;;;;;;50.00;39.00;;;;;10.73;45.93;99750.16;6203677;28;98506;-89
2020/12/18 03:36:50;;;;;;;;;45.33;38.00;;;;;10.05;45.69;99584.81;6184555;28;96669;-88
2020/12/18 03:39:52;;;;;;;;;50.00;40.00;;;;;10.49;45.69;99697.59;6179057;28;99822;-88
2020/12/18 03:43:01;;;;;;;;;47.00;38.00;;;;;10.45;46.00;99663.16;6196608;28;97419;-90
2020/12/18 03:46:06;;;;;;;;;47.25;39.00;;;;;10.94;45.77;99714.13;6183029;27;99538;-88
2020/12/18 03:49:28;;;;;;;;;48.80;39.80;;;;;10.88;45.92;99723.88;6207265;27;98122;-88
2020/12/18 03:52:37;;;;;;;;;54.00;41.00;;;;;10.26;46.51;99670.13;6203279;28;97168;-89
2020/12/18 03:55:39;;;;;;;;;50.00;41.00;;;;;10.52;46.45;99682.88;6204999;28;96838;-87
2020/12/18 03:59:09;;;;;;;;;52.80;39.80;;;;;9.91;46.30;99578.53;6185290;28;99184;-85
2020/12/18 04:02:30;;;;;;;;;53.00;41.00;;;;;10.06;46.26;99613.44;6182234;28;98080;-87
2020/12/18 04:05:31;;;;;;;;;48.00;39.00;;;;;10.35;46.53;99691.31;6178642;28;97105;-87
2020/12/18 04:08:34;;;;;;;;;50.00;40.00;;;;;9.27;46.31;99529.53;6178322;28;97326;-88
2020/12/18 04:12:00;;;;;;;;;50.25;40.00;;;;;10.38;46.49;99684.69;6182573;28;97545;-88
2020/12/18 04:15:26;;;;;;;;;50.50;40.50;;;;;9.06;46.38;99449.72;6177978;28;98022;-88
2020/12/18 04:18:27;;;;;;;;;49.00;38.20;;;;;10.80;46.39;99729.41;6178838;28;97150;-88
2020/12/18 04:21:29;;;;;;;;;49.50;39.50;;;;;10.37;46.45;99694.63;6183148;28;96858;-86
2020/12/18 04:24:39;;;;;;;;;49.40;40.00;;;;;9.98;46.46;99627.03;6199478;28;98739;-87
2020/12/18 04:27:41;;;;;;;;;52.00;40.00;;;;;10.49;46.56;99678.72;6182628;28;96694;-87
2020/12/18 04:30:45;;;;;;;;;51.20;40.00;;;;;10.23;46.77;99662.44;6166613;28;96652;-86
2020/12/18 04:33:47;;;;;;;;;49.80;40.40;;;;;10.73;46.43;99733.97;6166041;28;97585;-87
2020/12/18 04:36:54;;;;;;;;;51.50;42.00;;;;;10.48;46.88;99685.13;6199361;28;96904;-87
2020/12/18 04:40:14;;;;;;;;;51.00;41.00;;;;;9.53;46.76;99566.53;6168861;28;97856;-88
2020/12/18 04:43:34;;;;;;;;;53.00;42.25;;;;;9.98;47.33;99646.72;6183594;28;96528;-89
2020/12/18 04:46:42;;;;;;;;;52.00;41.00;;;;;10.65;47.15;99736.88;6179974;28;96483;-88
2020/12/18 04:49:45;;;;;;;;;53.60;41.80;;;;;10.27;47.43;99702.25;6141552;28;97660;-89
2020/12/18 04:52:57;;;;;;;;;50.50;40.00;;;;;10.55;47.49;99741.78;6164399;28;97004;-87
2020/12/18 04:56:10;;;;;;;;;49.00;36.00;;;;;9.91;47.11;99636.97;6199218;28;97243;-86
2020/12/18 04:59:27;;;;;;;;;51.60;40.40;;;;;9.57;47.64;99602.81;6181726;28;98588;-87
2020/12/18 05:02:35;;;;;;;;;50.50;40.25;;;;;9.94;47.98;99675.09;6204245;28;96982;-86
2020/12/18 05:05:37;;;;;;;;;53.00;41.80;;;;;9.57;47.90;99600.94;6190121;28;97490;-86
2020/12/18 05:08:45;;;;;;;;;47.20;38.60;;;;;10.50;47.95;99745.09;6182478;28;99466;-87
2020/12/18 05:11:47;;;;;;;;;52.40;41.00;;;;;9.82;47.88;99657.81;6185107;28;97429;-86
2020/12/18 05:14:49;;;;;;;;;48.40;38.40;;;;;9.82;48.04;99657.81;6181937;28;96806;-87
2020/12/18 05:18:04;;;;;;;;;49.00;39.00;;;;;10.14;47.88;99723.72;6206685;28;99440;-88
2020/12/18 05:21:07;;;;;;;;;51.50;42.00;;;;;9.75;48.23;99680.38;6206796;28;97710;-88
2020/12/18 05:24:25;;;;;;;;;53.60;41.60;;;;;9.72;48.41;99667.31;6222833;28;97166;-88
2020/12/18 05:27:27;;;;;;;;;53.50;42.00;;;;;9.51;48.33;99638.59;6190826;28;96670;-87
2020/12/18 05:30:31;;;;;;;;;50.50;39.50;;;;;10.26;48.25;99762.56;6189315;28;97530;-89
2020/12/18 05:34:07;;;;;;;;;52.50;39.50;;;;;9.51;48.20;99615.19;6216618;28;97813;-89
2020/12/18 05:37:21;;;;;;;;;50.00;39.00;;;;;9.87;48.28;99676.09;6182810;28;97271;-88
2020/12/18 05:40:32;;;;;;;;;45.60;36.80;;;;;7.95;48.34;99392.44;6185055;28;97871;-86
2020/12/18 05:43:54;;;;;;;;;45.60;37.60;;;;;10.34;48.70;99783.16;6181274;28;100750;-87
2020/12/18 05:47:14;;;;;;;;;50.00;40.00;;;;;10.26;48.97;99765.25;6200292;28;97844;-88
2020/12/18 05:50:18;;;;;;;;;47.60;38.00;;;;;9.91;48.84;99707.00;6181027;28;98236;-86
2020/12/18 05:53:21;;;;;;;;;47.80;38.40;;;;;10.02;49.05;99743.34;6181634;28;97870;-87
2020/12/18 05:56:31;;;;;;;;;47.00;38.50;;;;;10.17;49.02;99741.38;6181257;28;98005;-88
2020/12/18 05:59:40;;;;;;;;;48.60;38.00;;;;;10.46;49.09;99784.25;6164832;28;97463;-88
2020/12/18 06:02:48;;;;;;;;;41.40;34.00;;;;;10.58;48.88;99796.16;6166973;28;99244;-89
2020/12/18 06:06:03;;;;;;;;;46.00;36.40;;;;;9.75;48.83;99648.88;6181311;28;98952;-88
2020/12/18 06:09:07;;;;;;;;;45.00;36.00;;;;;9.75;48.98;99654.28;6180695;28;97446;-88
2020/12/18 06:12:12;;;;;;;;;45.60;36.00;;;;;10.36;48.97;99752.25;6156346;28;97274;-87
2020/12/18 06:15:18;;;;;;;;;43.80;34.20;;;;;10.21;49.01;99746.19;6178001;28;97526;-86
2020/12/18 06:18:25;;;;;;;;;42.00;34.00;;;;;10.20;49.22;99741.00;6181225;28;96968;-87
2020/12/18 06:21:27;;;;;;;;;37.50;32.50;;;;;9.96;49.33;99721.53;6181167;28;97068;-87
2020/12/18 06:24:29;;;;;;;;;42.00;33.20;;;;;10.73;49.00;99815.72;6172978;28;97670;-86
2020/12/18 06:28:02;;;;;;;;;40.50;32.00;;;;;10.31;49.21;99775.47;6166331;28;97561;-89
2020/12/18 06:31:32;;;;;;;;;41.40;33.20;;;;;10.42;49.36;99774.91;6203703;28;97224;-87
2020/12/18 06:35:33;;;;;;;;;40.67;35.00;;;;;10.49;49.58;99810.00;6136035;28;96707;-90
2020/12/18 06:38:57;;;;;;;;;41.40;33.80;;;;;10.24;49.54;99761.94;6168966;28;97276;-88
2020/12/18 06:42:34;;;;;;;;;39.75;32.75;;;;;10.34;49.77;99778.59;6083395;28;98460;-88
2020/12/18 06:46:09;;;;;;;;;42.00;33.50;;;;;10.28;49.84;99782.09;6194282;28;96502;-87
2020/12/18 06:49:55;;;;;;;;;45.00;35.00;;;;;10.51;50.10;99813.31;6172562;28;97372;-89
2020/12/18 06:53:15;;;;;;;;;42.60;34.00;;;;;10.59;50.00;99835.56;6184964;28;96873;-89
2020/12/18 06:56:40;;;;;;;;;38.60;32.00;;;;;10.57;50.10;99817.91;6162474;28;96630;-93
2020/12/18 07:00:23;;;;;;;;;36.00;32.00;;;;;10.61;50.00;99821.88;6172055;28;97660;-88
2020/12/18 07:03:38;;;;;;;;;37.40;32.20;;;;;10.55;50.22;99826.22;6174762;28;97156;-87
2020/12/18 07:06:40;;;;;;;;;44.67;34.00;;;;;9.99;50.18;99747.25;6177531;28;98032;-89
2020/12/18 07:09:42;;;;;;;;;40.00;33.00;;;;;10.29;50.26;99791.00;6167598;28;98860;-90
2020/12/18 07:12:48;;;;;;;;;40.00;32.00;;;;;10.68;50.08;99831.69;6163974;28;97075;-90
2020/12/18 07:15:51;;;;;;;;;43.80;32.60;;;;;10.37;50.26;99804.31;6180054;28;97094;-90
2020/12/18 07:19:01;;;;;;;;;36.20;32.00;;;;;10.45;50.09;99800.63;6180579;28;96566;-91
2020/12/18 07:22:03;;;;;;;;;41.75;33.00;;;;;10.47;50.02;99815.56;6177868;28;97049;-89
2020/12/18 07:25:05;;;;;;;;;38.67;33.00;;;;;10.53;49.92;99797.78;6167937;28;97242;-90
2020/12/18 07:28:09;;;;;;;;;43.40;35.00;;;;;10.80;50.03;99840.84;6163940;28;97259;-90
2020/12/18 07:31:23;;;;;;;;;36.25;32.00;;;;;10.27;49.87;99755.31;6171407;28;97289;-90
2020/12/18 07:34:24;;;;;;;;;43.00;33.50;;;;;10.81;49.68;99830.91;6203838;28;97923;-89
2020/12/18 07:37:26;;;;;;;;;42.40;35.00;;;;;10.79;49.50;99819.50;6160190;28;97178;-90
2020/12/18 07:40:36;;;;;;;;;37.60;32.00;;;;;10.34;49.68;99767.81;6146182;28;96934;-89
2020/12/18 07:43:38;;;;;;;;;43.40;35.00;;;;;9.67;49.83;99664.38;6168267;28;96506;-91
2020/12/18 07:46:40;;;;;;;;;42.40;34.60;;;;;10.11;49.69;99750.22;6144552;28;96384;-91
2020/12/18 07:49:43;;;;;;;;;40.40;33.00;;;;;10.89;49.83;99857.72;6162424;28;96671;-88
2020/12/18 07:52:45;;;;;;;;;38.00;33.00;;;;;10.55;49.76;99815.44;6154701;28;96929;-88
2020/12/18 07:56:04;;;;;;;;;41.60;33.60;;;;;10.95;49.55;99856.06;6167114;28;97172;-89
2020/12/18 07:59:08;;;;;;;;;38.20;32.80;;;;;9.99;49.59;99704.97;6198858;28;98530;-89
2020/12/18 08:02:10;;;;;;;;;42.00;33.60;;;;;10.44;49.68;99778.25;6166063;28;96809;-90
2020/12/18 08:05:12;;;;;;;;;44.00;35.00;;;;;10.33;49.72;99786.88;6158562;28;97249;-89
2020/12/18 08:08:15;;;;;;;;;40.60;33.00;;;;;10.75;49.84;99839.81;6165657;28;99733;-89
2020/12/18 08:11:18;;;;;;;;;44.00;35.60;;;;;10.66;49.99;99830.19;6182812;28;98025;-89
2020/12/18 08:14:20;;;;;;;;;47.80;37.40;;;;;10.65;49.97;99840.16;6166241;28;97144;-89
2020/12/18 08:17:23;;;;;;;;;44.80;35.80;;;;;10.70;49.83;99834.97;6173952;28;97803;-91
2020/12/18 08:20:25;;;;;;;;;44.00;35.00;;;;;10.60;49.87;99833.72;6173037;28;96570;-87
2020/12/18 08:23:29;;;;;;;;;40.75;35.00;;;;;10.57;50.02;99839.47;6182625;28;98463;-89
2020/12/18 08:26:40;;;;;;;;;38.75;33.75;;;;;10.71;49.94;99852.00;6182548;28;97099;-88
2020/12/18 08:29:44;;;;;;;;;41.00;33.40;;;;;10.98;49.97;99885.38;6182306;28;96859;-90
2020/12/18 08:32:54;;;;;;;;;39.00;33.00;;;;;10.97;50.11;99884.53;6181841;28;96889;-89
2020/12/18 08:35:57;;;;;;;;;40.00;33.00;;;;;11.08;49.87;99875.03;6156276;28;97129;-91
2020/12/18 08:39:06;;;;;;;;;43.40;35.00;;;;;11.14;49.52;99888.53;6185701;28;96454;-91
2020/12/18 08:42:15;;;;;;;;;42.00;35.20;;;;;10.81;49.72;99842.53;6201227;28;96896;-90
2020/12/18 08:45:17;;;;;;;;;42.00;35.00;;;;;10.37;49.43;99755.78;6183712;28;97179;-90
2020/12/18 08:48:26;;;;;;;;;42.60;35.60;;;;;11.40;49.78;99882.41;6169497;28;97356;-91
2020/12/18 08:51:42;;;;;;;;;42.20;33.40;;;;;10.97;49.28;99808.16;6170266;28;97167;-89
2020/12/18 08:54:45;;;;;;;;;45.00;35.00;;;;;11.12;49.26;99863.63;6188722;28;96914;-91
2020/12/18 08:58:23;;;;;;;;;43.80;35.00;;;;;10.93;49.35;99815.81;6188289;28;97511;-89
2020/12/18 09:01:32;;;;;;;;;42.00;34.00;;;;;11.46;49.18;99894.28;6169692;28;96983;-89
2020/12/18 09:05:20;;;;;;;;;45.00;35.40;;;;;11.30;49.36;99853.09;6190985;28;97357;-91
2020/12/18 09:08:39;;;;;;;;;40.60;34.00;;;;;10.98;49.21;99785.53;6198043;28;96511;-91
2020/12/18 09:11:48;;;;;;;;;41.20;34.40;;;;;11.02;48.82;99808.38;6166921;28;97374;-90
2020/12/18 09:14:50;;;;;;;;;40.20;33.00;;;;;11.06;48.68;99793.44;6160909;28;97485;-90
2020/12/18 09:18:06;;;;;;;;;44.60;33.60;;;;;11.55;48.63;99853.38;6165270;28;97100;-91
2020/12/18 09:21:17;;;;;;;;;42.40;34.60;;;;;11.75;48.90;99890.44;6147672;28;97192;-90
2020/12/18 09:24:39;;;;;;;;;44.40;35.80;;;;;11.78;48.71;99893.56;6161129;28;96752;-91
2020/12/18 09:28:01;;;;;;;;;40.40;32.60;;;;;11.86;48.70;99897.94;6179761;28;97210;-89
2020/12/18 09:31:19;;;;;;;;;46.60;35.00;;;;;10.81;48.47;99752.66;6161195;28;96494;-89
2020/12/18 09:35:16;;;;;;;;;44.50;35.00;;;;;11.51;48.49;99824.28;6157875;28;96405;-90
2020/12/18 09:39:17;;;;;;;;;44.80;35.40;;;;;12.06;48.56;99893.41;6075432;28;96947;-90
2020/12/18 09:42:58;;;;;;;;;41.00;34.00;;;;;11.82;48.17;99834.56;6082814;28;96982;-91
2020/12/18 09:46:18;;;;;;;;;43.00;33.00;;;;;12.23;48.15;99897.34;6159820;28;97135;-56
2020/12/18 09:49:20;;;;;;;;;38.80;32.80;;;;;12.26;47.94;99894.25;6159878;28;97665;-56
2020/12/18 09:52:21;;;;;;;;;40.20;34.60;;;;;12.29;48.11;99887.59;6177135;28;96987;-56
2020/12/18 09:55:22;;;;;;;;;42.00;35.00;;;;;12.29;47.81;99883.00;6186063;28;99094;-56
2020/12/18 09:58:25;;;;;;;;;42.00;33.20;;;;;12.38;47.71;99887.16;6184674;28;97206;-56
2020/12/18 10:01:27;;;;;;;;;44.20;34.80;;;;;12.53;47.49;99889.66;6166068;28;96825;-56
2020/12/18 10:04:28;;;;;;;;;45.60;34.20;;;;;12.70;47.21;99898.16;6185002;28;98392;-56
2020/12/18 10:07:30;;;;;;;;;41.60;34.60;;;;;12.72;47.31;99887.94;6184983;28;98647;-56
2020/12/18 10:10:32;;;;;;;;;40.00;33.00;;;;;12.56;47.25;99894.63;6185703;28;98811;-56
2020/12/18 10:13:33;;;;;;;;;40.33;33.00;;;;;12.71;46.94;99892.53;6185101;28;97210;-56
2020/12/18 10:16:35;;;;;;;;;46.00;35.60;;;;;12.80;47.07;99901.28;6184016;28;98056;-56
2020/12/18 10:19:36;;;;;;;;;44.00;36.00;;;;;12.69;47.11;99872.97;6175562;28;97210;-56
2020/12/18 10:22:38;;;;;;;;;42.80;33.00;;;;;12.92;46.85;99910.38;6126414;28;97338;-56
2020/12/18 10:25:39;;;;;;;;;40.00;33.00;;;;;12.94;46.76;99900.19;6142137;28;97523;-56
2020/12/18 10:28:40;;;;;;;;;43.80;34.60;;;;;12.91;46.47;99906.00;6142449;28;97291;-56
2020/12/18 10:31:42;;;;;;;;;40.40;33.00;;;;;12.76;46.83;99890.00;6159688;28;96466;-56
2020/12/18 10:34:44;;;;;;;;;41.50;35.00;;;;;12.89;47.39;99900.84;6159002;28;96994;-56
2020/12/18 10:37:47;;;;;;;;;41.50;32.00;;;;;12.91;46.66;99914.13;6159177;28;97724;-56
2020/12/18 10:40:49;;;;;;;;;40.00;35.00;;;;;12.88;46.63;99910.00;6159111;28;97024;-56
2020/12/18 10:43:50;;;;;;;;;44.60;35.00;;;;;12.97;46.44;99910.59;6159475;28;97057;-56
2020/12/18 10:46:51;;;;;;;;;41.60;35.00;;;;;12.97;46.21;99913.28;6156481;28;97792;-57
2020/12/18 10:49:53;;;;;;;;;42.50;33.50;;;;;13.05;46.32;99902.22;6165529;28;96661;-57
2020/12/18 10:52:54;;;;;;;;;39.40;33.00;;;;;12.89;46.30;99891.88;6168079;28;96685;-56
2020/12/18 10:55:56;;;;;;;;;47.60;38.40;;;;;13.10;46.40;99907.84;6167196;28;97457;-56
2020/12/18 10:58:58;;;;;;;;;43.33;35.00;;;;;13.03;46.51;99898.91;6162382;28;98157;-56
2020/12/18 11:01:59;;;;;;;;;45.40;37.00;;;;;13.06;46.19;99914.72;6160744;28;96898;-56
2020/12/18 11:05:01;;;;;;;;;39.80;33.20;;;;;13.15;46.24;99907.22;6156634;28;97385;-56
2020/12/18 11:08:02;;;;;;;;;45.00;36.00;;;;;13.16;46.45;99898.91;6158987;28;96941;-56
2020/12/18 11:11:08;;;;;;;;;44.25;34.25;;;;;13.20;46.24;99900.13;6143699;28;97281;-55
2020/12/18 11:14:11;;;;;;;;;48.40;37.00;;;;;13.29;46.33;99900.75;6144545;28;97585;-55
2020/12/18 11:17:12;;;;;;;;;43.00;35.00;;;;;13.25;46.25;99892.19;6159965;28;97009;-56
2020/12/18 11:20:14;;;;;;;;;46.60;36.40;;;;;13.32;46.27;99897.59;6140880;28;97057;-55
2020/12/18 11:23:15;;;;;;;;;41.25;35.00;;;;;13.30;46.11;99894.25;6159259;28;98588;-56
2020/12/18 11:26:17;;;;;;;;;47.00;37.20;;;;;13.39;46.27;99891.06;6157234;28;98148;-56
2020/12/18 11:29:20;;;;;;;;;49.00;36.00;;;;;13.39;46.46;99895.66;6181121;28;98828;-55
2020/12/18 11:32:21;;;;;;;;;46.00;37.50;;;;;13.38;46.57;99896.72;6182835;28;97422;-56
2020/12/18 11:35:23;;;;;;;;;46.20;38.00;;;;;13.44;46.41;99901.25;6183527;28;99099;-57
2020/12/18 11:38:25;;;;;;;;;48.50;37.00;;;;;13.49;46.19;99895.22;6182584;28;96654;-56
2020/12/18 11:41:26;;;;;;;;;49.80;39.00;;;;;13.55;45.98;99897.06;6164775;28;97567;-56
2020/12/18 11:44:28;;;;;;;;;48.60;38.00;;;;;13.58;45.84;99894.75;6157234;28;97788;-55
2020/12/18 11:47:29;;;;;;;;;49.40;38.00;;;;;13.51;46.01;99882.28;6141105;28;96596;-56
2020/12/18 11:50:31;;;;;;;;;49.00;39.40;;;;;13.58;45.83;99894.75;6162207;28;96967;-58
2020/12/18 11:53:33;;;;;;;;;47.00;39.00;;;;;13.32;45.65;99852.38;6177043;28;97890;-56
2020/12/18 11:56:34;;;;;;;;;47.00;39.00;;;;;13.54;45.84;99889.97;6182379;28;96964;-56
2020/12/18 11:59:36;;;;;;;;;47.00;37.60;;;;;13.57;45.76;99887.69;6176737;28;97143;-55
2020/12/18 12:02:37;;;;;;;;;47.00;37.80;;;;;13.56;45.86;99890.59;6183546;28;99082;-55
2020/12/18 12:05:39;;;;;;;;;50.50;40.00;;;;;13.36;46.05;99871.72;6183560;28;98522;-55
2020/12/18 12:08:40;;;;;;;;;50.80;42.00;;;;;13.46;46.05;99891.06;6183144;28;97741;-56
2020/12/18 12:11:42;;;;;;;;;49.00;38.00;;;;;13.45;46.22;99892.94;6183015;28;97206;-55
2020/12/18 12:14:43;;;;;;;;;49.00;38.60;;;;;13.50;46.17;99889.56;6183411;28;98459;-55
2020/12/18 12:17:45;;;;;;;;;49.00;39.20;;;;;13.51;46.22;99887.69;6174878;28;96944;-55
2020/12/18 12:20:46;;;;;;;;;52.60;40.00;;;;;13.47;46.06;99891.91;6166397;28;97020;-55
2020/12/18 12:23:47;;;;;;;;;51.67;41.33;;;;;13.15;46.02;99845.78;6158063;28;96899;-55
2020/12/18 12:26:49;;;;;;;;;53.00;41.00;;;;;13.32;46.22;99893.00;6158253;28;97485;-56
2020/12/18 12:29:52;;;;;;;;;52.00;41.00;;;;;13.32;46.48;99889.47;6158646;28;98119;-54
2020/12/18 12:32:56;;;;;;;;;50.00;39.60;;;;;13.29;46.82;99893.41;6158876;28;99132;-56
2020/12/18 12:35:58;;;;;;;;;50.20;40.00;;;;;13.30;46.91;99891.53;6158274;28;97584;-55
2020/12/18 12:38:59;;;;;;;;;55.60;42.00;;;;;13.28;46.96;99893.66;6158964;28;97257;-55
2020/12/18 12:42:01;;;;;;;;;53.00;41.75;;;;;13.26;47.08;99893.03;6161623;28;97499;-54
2020/12/18 12:45:04;;;;;;;;;52.40;42.00;;;;;13.15;46.97;99866.59;6141263;28;97147;-55
2020/12/18 12:48:05;;;;;;;;;54.75;43.75;;;;;13.38;47.05;99889.44;6153886;28;97068;-55
2020/12/18 12:51:19;;;;;;;;;51.20;42.00;;;;;13.43;46.88;99883.38;6152895;28;98412;-55
2020/12/18 12:54:25;;;;;;;;;55.00;44.00;;;;;13.41;46.70;99882.75;6162236;28;96740;-54
2020/12/18 12:57:26;;;;;;;;;56.20;42.60;;;;;13.40;46.68;99886.50;6159536;28;97153;-53
2020/12/18 13:00:28;;;;;;;;;51.40;40.60;;;;;13.50;46.83;99883.31;6162040;28;97033;-53
2020/12/18 13:03:30;;;;;;;;;50.80;41.00;;;;;13.54;46.73;99882.66;6158504;28;97692;-53
2020/12/18 13:06:31;;;;;;;;;51.40;41.00;;;;;13.39;46.54;99846.91;6162452;28;96593;-54
2020/12/18 13:09:33;;;;;;;;;56.60;44.60;;;;;13.66;46.46;99880.13;6161549;28;99093;-52
2020/12/18 13:12:34;;;;;;;;;54.00;43.40;;;;;13.67;46.51;99889.91;6161911;28;97160;-53
2020/12/18 13:15:36;;;;;;;;;57.00;44.60;;;;;13.66;46.59;99880.94;6156821;28;97192;-53
2020/12/18 13:18:38;;;;;;;;;58.75;46.00;;;;;13.66;46.49;99880.94;6159953;28;97440;-54
2020/12/18 13:21:39;;;;;;;;;56.60;45.60;;;;;13.67;46.43;99885.34;6175033;28;97509;-53
2020/12/18 13:24:40;;;;;;;;;60.20;45.60;;;;;13.66;46.42;99880.94;6160912;28;96700;-53
2020/12/18 13:27:42;;;;;;;;;60.00;46.00;;;;;13.68;46.46;99881.53;6159245;28;98786;-53
2020/12/18 13:30:44;;;;;;;;;57.00;45.60;;;;;13.80;46.30;99874.41;6160858;28;98615;-53
2020/12/18 13:33:48;;;;;;;;;58.50;46.00;;;;;13.74;46.38;99872.56;6161049;28;97557;-53
2020/12/18 13:36:50;;;;;;;;;60.00;46.00;;;;;13.75;46.40;99873.38;6156113;28;97590;-53
2020/12/18 13:39:51;;;;;;;;;60.50;47.00;;;;;13.76;46.28;99875.88;6160917;28;98681;-54
2020/12/18 13:42:53;;;;;;;;;60.60;46.00;;;;;13.78;46.20;99872.97;6161307;28;96695;-53
2020/12/18 13:45:54;;;;;;;;;59.00;46.00;;;;;13.81;46.35;99867.94;6160654;28;97086;-53
2020/12/18 13:48:56;;;;;;;;;57.00;45.80;;;;;13.78;46.25;99879.19;6153729;28;99031;-53
2020/12/18 13:51:58;;;;;;;;;60.00;46.00;;;;;13.76;46.26;99877.75;6149314;28;96941;-53
2020/12/18 13:54:59;;;;;;;;;58.00;46.00;;;;;13.77;46.36;99877.56;6145997;28;97135;-53
2020/12/18 13:58:01;;;;;;;;;62.00;48.00;;;;;13.77;45.80;99884.84;6161153;28;98559;-53
2020/12/18 14:01:02;;;;;;;;;60.00;48.00;;;;;13.82;45.97;99882.31;6157589;28;96830;-53
2020/12/18 14:04:04;;;;;;;;;59.25;46.00;;;;;13.84;46.04;99882.91;6161897;28;96634;-53
2020/12/18 14:07:05;;;;;;;;;60.60;47.00;;;;;13.55;45.96;99846.41;6159894;28;97643;-52
2020/12/18 14:10:07;;;;;;;;;60.75;46.00;;;;;13.84;45.98;99889.16;6157831;28;97193;-53
2020/12/18 14:13:09;;;;;;;;;62.00;48.00;;;;;13.58;46.12;99862.25;6160323;28;97898;-53
2020/12/18 14:16:11;;;;;;;;;62.00;48.00;;;;;13.79;46.03;99883.56;6156116;28;96833;-53
2020/12/18 14:19:13;;;;;;;;;62.00;48.00;;;;;13.62;46.05;99868.88;6157276;28;98627;-53
2020/12/18 14:22:15;;;;;;;;;61.00;47.00;;;;;13.75;46.04;99897.78;6158640;28;97480;-52
2020/12/18 14:25:17;;;;;;;;;62.00;48.00;;;;;13.70;45.98;99901.13;6160050;28;96837;-52